W K Kellogg Airport
KBTL : now visible

Airfield :











YOU CAN JOIN US ON...

 
LOGIN :

Register | Disclaimer

   EN    FR    IT 

 









Legend :    VFR   Marginal VFR   IFR   Intensive IFR   Very Intensive IFR
Visi :
Ceiling :
>= 8 km
>= 3000ft
5 to 8 km
1000 to 3000 ft
1500m to 5 km
500 to 1000 ft
800 to 1500m
200 to 500 ft
< 800m
< 200 ft
Symbols :   Thunderstorms  Fog  Heavy snow  Heavy precipitations  Wind > 20 kt






- Airport Elevation : 952 ft


KBTL - W K Kellogg

CURRENT METAR :
  • 171853Z 31011KT 4SM BR OVC014 M02/M04 A2968 RMK AO2 SLP063 I1001 T10171039

EXPIRED METARs :
  • 171753Z 34010G20KT 6SM HZ OVC014 M02/M04 A2968 RMK AO2 SLP063 T10171044 11017 21050 51010
  • 171736Z 33010KT 6SM HZ BKN014 OVC020 M02/M05 A2967 RMK AO2 T10171050
  • 171722Z 31009KT 7SM OVC016 M02/M05 A2968 RMK AO2 T10171050
  • 171653Z 30012KT 10SM OVC012 M02/M06 A2968 RMK AO2 SLP061 T10221056
  • 171631Z 31009G17KT 10SM OVC010 M03/M06 A2967 RMK AO2 T10281056

TAF KBTL
Valid from the 17 at 18:00 until the 18 at 18:00 UTC


171720Z 1718/1818 31012KT P6SM VCSH OVC015
TEMPO 1719/1722 4SM -FZDZ
FM180000 27008KT P6SM BKN025
FM181200 22004KT 6SM BR OVC015
KZAU FIR / North America



MET'MAP, your aeronautical weather chart ! - Copyright ORBIFLY December 2007 - Disclaimer

ORBIFLY MET'MAP TEAM :

Programming & Development : Alexandra Zaïnal
Concept & original design : Baudouin d'Aumeries
Assistance for programming : Marc-Olivier Méhu
Technical & hardware support : Manuel Goepfert

Contact : metmap@orbifly.com




SOURCES & CREDITS :

   NOAA       Earth
Advisory